La Salle, Minnesota
Current Conditions -  °F | °C
As of 10:13 PM on Sunday 25 Jan 2015 (Local Time) from KJYG Reporting Station
Clear Clear  
Wind Chill: 23°   Ceiling: Unl
Heat Index: 28°   Visibility: 10mi
Dew Point: 27°   Wind: 5mph
Humidity: 93%   Direction: 150°SSE
Pressure: 30"   Gusts: NA
Location:  44.07°N, 94.57°W
Report Text: KJYG 260413Z AUTO 15004KT 10SM CLR M02/M03 A3000 RMK AO2
Loading
Personal Weather Stations






























Interactive Weather Map New forecast layout! Learn more

10-Day Weather Forecast

Advertisements
Track Severe Weather on mobile